Overview Statistics Trail Chart Weather Telemetry Raw packets
 

This is the latest recevied weather packets stored in our database for station/object WA6ODQ-13. If no packets are shown the sender has not sent any weather packets the latest 10 day(s).

<< 29 30 31 32 33 34 35 >>
Time Temp. Humidity Pressure Rain* Wind** Luminosity Snow
1788469466 22.78° C 69% 1011.4 hPa 0 mm - 308 W/m² -
1788469161 23.33° C 67% 1011.3 hPa 0 mm - 886 W/m² -
1788468860 22.22° C 70% 1011.3 hPa 0 mm - 892 W/m² -
1788468555 22.78° C 69% 1011.3 hPa 0 mm - 392 W/m² -
1788468252 22.78° C 70% 1011.4 hPa 0 mm - 848 W/m² -
1788467947 22.22° C 70% 1011.5 hPa 0 mm - 786 W/m² -
1788467642 22.22° C 71% 1011.3 hPa 0 mm - 434 W/m² -
1788467342 22.22° C 71% 1011.6 hPa 0 mm - 402 W/m² -
1788467038 22.22° C 71% 1011.5 hPa 0 mm - 453 W/m² -
1788466738 22.22° C 71% 1011.3 hPa 0 mm - 391 W/m² -
1788466433 22.22° C 71% 1011.8 hPa 0 mm - 704 W/m² -
1788466132 21.67° C 72% 1011.5 hPa 0 mm - 627 W/m² -
1788465827 21.67° C 72% 1011.7 hPa 0 mm - 445 W/m² -
1788465218 22.22° C 71% 1011.9 hPa 0 mm - 682 W/m² -
1788464912 21.67° C 71% 1012 hPa 0 mm - 352 W/m² -
1788464608 21.67° C 72% 1011.7 hPa 0 mm - 350 W/m² -
1788464304 21.67° C 71% 1012 hPa 0 mm - 299 W/m² -
1788464000 21.11° C 73% 1012.3 hPa 0 mm - 318 W/m² -
1788463695 21.11° C 73% 1012.2 hPa 0 mm - 399 W/m² -
1788463391 21.11° C 73% 1012.6 hPa 0 mm - 323 W/m² -
1788463086 21.11° C 74% 1012.6 hPa 0 mm - 423 W/m² -
1788462782 21.11° C 73% 1012.3 hPa 0 mm - 362 W/m² -
1788462477 21.11° C 73% 1012.3 hPa 0 mm - 207 W/m² -
1788462171 21.11° C 72% 1012.4 hPa 0 mm - 329 W/m² -
1788461871 20.56° C 73% 1012.4 hPa 0 mm - 279 W/m² -

* Rain latest hour (hover to see other rain measurements)
** Current wind speed in m/s (hover to see current wind gust speed)